Time;durP1;ratioP1;P1;durP2;ratioP2;P2;SDS_P1;SDS_P2;PMS_P1;PMS_P2;Temp;Humidity;BMP_temperature;BMP_pressure;BME280_temperature;BME280_humidity;BME280_pressure;Samples;Min_cycle;Max_cycle;Signal;HPM_P1;HPM_P2
2024/03/25 00:02:13;;;;;;;10.57;2.17;;;8.40;99.90;;;;;;4972213;28;20027;-77
2024/03/25 00:04:39;;;;;;;4.68;1.80;;;8.40;99.90;;;;;;4971918;28;20038;-76
2024/03/25 00:07:04;;;;;;;6.63;2.25;;;8.40;99.90;;;;;;4988693;28;20033;-76
2024/03/25 00:09:30;;;;;;;7.07;2.15;;;8.40;99.90;;;;;;4956071;28;20061;-76
2024/03/25 00:11:56;;;;;;;6.53;1.77;;;8.40;99.90;;;;;;4972019;28;20045;-75
2024/03/25 00:14:21;;;;;;;4.05;1.60;;;8.40;99.90;;;;;;4955641;28;20038;-78
2024/03/25 00:16:47;;;;;;;5.15;1.90;;;8.40;99.90;;;;;;4939979;28;20022;-75
2024/03/25 00:19:13;;;;;;;6.60;2.00;;;8.30;99.90;;;;;;4971559;28;20102;-75
2024/03/25 00:21:39;;;;;;;7.75;2.22;;;8.30;99.90;;;;;;4939912;28;20077;-76
2024/03/25 00:24:04;;;;;;;5.70;1.90;;;8.20;99.90;;;;;;4955887;28;20288;-75
2024/03/25 00:26:30;;;;;;;11.98;2.28;;;8.30;99.90;;;;;;4971462;28;20038;-76
2024/03/25 00:28:56;;;;;;;6.15;1.55;;;8.20;99.90;;;;;;4955663;28;20022;-76
2024/03/25 00:31:21;;;;;;;4.68;1.42;;;8.20;99.90;;;;;;4939782;28;20034;-76
2024/03/25 00:33:47;;;;;;;3.15;1.52;;;8.20;99.90;;;;;;4971459;28;20097;-76
2024/03/25 00:36:13;;;;;;;2.75;1.30;;;8.20;99.90;;;;;;4971521;28;20081;-76
2024/03/25 00:38:38;;;;;;;3.72;1.15;;;8.10;99.90;;;;;;4971297;28;20349;-76
2024/03/25 00:41:04;;;;;;;3.15;1.30;;;8.10;99.90;;;;;;4988007;28;20046;-76
2024/03/25 00:43:30;;;;;;;2.97;0.98;;;8.10;99.90;;;;;;4955319;28;20139;-76
2024/03/25 00:45:56;;;;;;;2.70;1.00;;;8.10;99.90;;;;;;4939545;28;20089;-76
2024/03/25 00:48:22;;;;;;;2.75;1.08;;;8.10;99.90;;;;;;4955775;28;20030;-76
2024/03/25 00:50:48;;;;;;;2.15;0.85;;;8.20;99.90;;;;;;4939464;28;20027;-76
2024/03/25 00:53:14;;;;;;;2.55;1.20;;;8.10;99.90;;;;;;4971133;28;20034;-76
2024/03/25 00:55:40;;;;;;;2.40;0.90;;;8.20;99.90;;;;;;4970993;28;20058;-76
2024/03/25 00:58:05;;;;;;;1.70;1.00;;;8.20;99.90;;;;;;4971001;28;20043;-76
2024/03/25 01:00:31;;;;;;;2.25;0.85;;;8.20;99.90;;;;;;4971045;28;20086;-76
2024/03/25 01:02:57;;;;;;;3.47;1.23;;;8.20;99.90;;;;;;4938980;28;20085;-76
2024/03/25 01:05:22;;;;;;;2.50;1.10;;;8.20;99.90;;;;;;4955009;28;20023;-76
2024/03/25 01:07:48;;;;;;;2.72;0.90;;;8.30;99.90;;;;;;4988111;28;20094;-76
2024/03/25 01:10:17;;;;;;;2.55;0.80;;;8.30;99.90;;;;;;4970668;28;20038;-75
2024/03/25 01:12:43;;;;;;;2.63;0.90;;;8.30;99.90;;;;;;4971026;28;20355;-75
2024/03/25 01:15:10;;;;;;;2.33;0.98;;;8.40;99.90;;;;;;4970779;28;20030;-75
2024/03/25 01:17:36;;;;;;;3.05;1.10;;;8.40;99.90;;;;;;4955229;28;20158;-75
2024/03/25 01:20:04;;;;;;;1.80;0.82;;;8.50;99.90;;;;;;4970737;28;20073;-76
2024/03/25 01:22:30;;;;;;;1.85;0.70;;;8.50;99.90;;;;;;4971020;28;20026;-76
2024/03/25 01:24:56;;;;;;;1.15;0.60;;;8.60;99.90;;;;;;4987181;28;20317;-76
2024/03/25 01:27:22;;;;;;;1.27;0.70;;;8.60;99.90;;;;;;4970586;28;20018;-76
2024/03/25 01:29:47;;;;;;;0.50;0.50;;;8.70;99.90;;;;;;4954587;28;20081;-76
2024/03/25 01:32:13;;;;;;;1.02;0.60;;;8.70;99.90;;;;;;4954540;28;20031;-76
2024/03/25 01:34:38;;;;;;;0.95;0.63;;;8.70;99.90;;;;;;4954253;28;20027;-76
2024/03/25 01:37:04;;;;;;;0.60;0.60;;;8.70;99.90;;;;;;4987324;28;20023;-76
2024/03/25 01:39:30;;;;;;;0.95;0.60;;;8.70;99.90;;;;;;4987154;28;20035;-76
2024/03/25 01:41:55;;;;;;;0.70;0.70;;;8.80;99.90;;;;;;4970168;28;20092;-75
2024/03/25 01:44:21;;;;;;;1.23;0.75;;;8.80;99.90;;;;;;4986943;28;20161;-76
2024/03/25 01:46:47;;;;;;;0.85;0.70;;;8.80;99.90;;;;;;4987103;28;20040;-76
2024/03/25 01:49:12;;;;;;;0.60;0.60;;;8.80;99.90;;;;;;4987271;28;20089;-76
2024/03/25 01:51:38;;;;;;;2.10;0.70;;;8.80;99.90;;;;;;4987345;28;20057;-77
2024/03/25 01:54:04;;;;;;;1.27;0.70;;;8.80;99.90;;;;;;4953922;28;20057;-76
2024/03/25 01:56:31;;;;;;;0.75;0.63;;;8.80;99.90;;;;;;4954088;28;20022;-76
2024/03/25 01:58:57;;;;;;;2.03;0.95;;;8.80;99.90;;;;;;4986895;28;20031;-76
2024/03/25 02:01:22;;;;;;;0.50;0.50;;;8.80;99.90;;;;;;4970014;28;20042;-77
2024/03/25 02:03:48;;;;;;;2.67;1.27;;;8.80;99.90;;;;;;4953955;28;20066;-75
2024/03/25 02:06:15;;;;;;;1.30;0.80;;;8.80;99.90;;;;;;4953831;28;20050;-76
2024/03/25 02:08:41;;;;;;;1.27;0.60;;;8.90;99.90;;;;;;4954133;28;20284;-75
2024/03/25 02:11:07;;;;;;;0.95;0.70;;;8.90;99.90;;;;;;4969705;28;20037;-75
2024/03/25 02:13:32;;;;;;;2.03;0.90;;;8.80;99.90;;;;;;4969944;28;20030;-76
2024/03/25 02:15:58;;;;;;;0.68;0.60;;;8.80;99.90;;;;;;4986870;28;20054;-75
2024/03/25 02:18:24;;;;;;;1.05;0.70;;;8.80;99.90;;;;;;4953584;28;20027;-75
2024/03/25 02:20:50;;;;;;;0.50;0.50;;;8.80;99.90;;;;;;4953443;28;20019;-75
2024/03/25 02:23:15;;;;;;;1.65;0.80;;;8.80;99.90;;;;;;4969749;28;20058;-75
2024/03/25 02:25:42;;;;;;;2.53;0.80;;;8.80;99.90;;;;;;4953901;28;20090;-75
2024/03/25 02:28:08;;;;;;;1.23;0.80;;;8.80;99.90;;;;;;4953757;28;20026;-74
2024/03/25 02:30:34;;;;;;;0.80;0.70;;;8.80;99.90;;;;;;4953654;28;20081;-75
2024/03/25 02:32:59;;;;;;;1.45;0.80;;;8.80;99.90;;;;;;4986474;28;20038;-74
2024/03/25 02:35:26;;;;;;;1.23;0.88;;;8.90;99.90;;;;;;4953744;28;20023;-74
2024/03/25 02:37:52;;;;;;;0.80;0.77;;;8.90;99.90;;;;;;4986810;28;20041;-74
2024/03/25 02:40:17;;;;;;;1.50;0.80;;;8.90;99.90;;;;;;4937475;28;20047;-74
2024/03/25 02:42:43;;;;;;;0.95;0.80;;;8.90;99.90;;;;;;4937595;28;20038;-74
2024/03/25 02:45:09;;;;;;;1.42;0.80;;;8.80;99.90;;;;;;4953444;28;20102;-75
2024/03/25 02:47:34;;;;;;;2.05;0.90;;;8.80;99.90;;;;;;4969461;28;20022;-75
2024/03/25 02:50:00;;;;;;;1.10;0.80;;;8.80;99.90;;;;;;4986590;28;20029;-75
2024/03/25 02:52:26;;;;;;;1.25;0.90;;;8.90;99.90;;;;;;4986181;28;20073;-76
2024/03/25 02:54:51;;;;;;;2.05;0.77;;;8.90;99.90;;;;;;4969336;28;20082;-76
2024/03/25 02:57:17;;;;;;;1.02;0.60;;;8.90;99.90;;;;;;4953446;28;20098;-76
2024/03/25 02:59:43;;;;;;;0.60;0.60;;;8.90;99.90;;;;;;4953376;28;20031;-76
2024/03/25 03:02:08;;;;;;;1.02;0.60;;;8.90;99.90;;;;;;4969160;28;20054;-76
2024/03/25 03:04:34;;;;;;;0.70;0.70;;;8.90;99.90;;;;;;4937291;28;20030;-76
2024/03/25 03:06:59;;;;;;;1.08;0.60;;;8.80;99.90;;;;;;4937822;28;20062;-76
2024/03/25 03:09:25;;;;;;;0.52;0.52;;;8.80;99.90;;;;;;4986248;28;20062;-76
2024/03/25 03:11:51;;;;;;;1.35;0.77;;;8.80;99.90;;;;;;4969284;28;20038;-76
2024/03/25 03:14:17;;;;;;;0.50;0.50;;;8.90;99.90;;;;;;4953362;28;20031;-76
2024/03/25 03:16:42;;;;;;;0.73;0.68;;;8.90;99.90;;;;;;4969373;28;20027;-76
2024/03/25 03:19:08;;;;;;;0.95;0.77;;;8.90;99.90;;;;;;4937195;28;20034;-76
2024/03/25 03:21:33;;;;;;;1.05;0.70;;;8.90;99.90;;;;;;4969215;28;20085;-76
2024/03/25 03:23:59;;;;;;;1.58;0.70;;;8.90;99.90;;;;;;4969202;28;20019;-75
2024/03/25 03:26:27;;;;;;;0.70;0.68;;;8.90;99.90;;;;;;4969278;28;20031;-76
2024/03/25 03:28:58;;;;;;;1.08;0.70;;;8.90;99.90;;;;;;4953384;28;20049;-76
2024/03/25 03:31:24;;;;;;;2.72;0.82;;;8.90;99.90;;;;;;4986293;28;20057;-76
2024/03/25 03:33:50;;;;;;;1.30;0.70;;;8.90;99.90;;;;;;4938556;28;20056;-76
2024/03/25 03:36:17;;;;;;;1.20;0.70;;;8.90;99.90;;;;;;4956603;28;20157;-76
2024/03/25 03:38:43;;;;;;;0.80;0.60;;;8.90;99.90;;;;;;4940791;28;20022;-77
2024/03/25 03:41:08;;;;;;;0.90;0.60;;;8.90;99.90;;;;;;4940492;28;20248;-77
2024/03/25 03:43:34;;;;;;;0.60;0.60;;;8.90;99.90;;;;;;4956632;28;20034;-77
2024/03/25 03:46:00;;;;;;;1.48;0.90;;;8.90;99.90;;;;;;4956645;28;20205;-76
2024/03/25 03:48:26;;;;;;;2.28;0.70;;;8.90;99.90;;;;;;4972658;28;20204;-77
2024/03/25 03:50:51;;;;;;;1.05;0.77;;;9.00;99.90;;;;;;4956562;28;20165;-76
2024/03/25 03:53:17;;;;;;;1.20;0.70;;;8.90;99.90;;;;;;4972442;28;20038;-77
2024/03/25 03:55:52;;;;;;;0.88;0.70;;;9.00;99.90;;;;;;4956733;28;20315;-76
2024/03/25 03:58:18;;;;;;;0.82;0.60;;;9.00;99.90;;;;;;4973573;28;20034;-76
2024/03/25 04:00:43;;;;;;;0.60;0.60;;;8.90;99.90;;;;;;4991133;28;20023;-76
2024/03/25 04:03:09;;;;;;;1.88;0.68;;;9.00;99.90;;;;;;4957392;28;20078;-76
2024/03/25 04:05:34;;;;;;;0.60;0.60;;;9.00;99.90;;;;;;4972596;28;20039;-76
2024/03/25 04:08:00;;;;;;;1.27;0.60;;;9.00;99.90;;;;;;4956848;28;20053;-76
2024/03/25 04:10:26;;;;;;;0.60;0.60;;;9.00;99.90;;;;;;4956498;28;20303;-76
2024/03/25 04:12:52;;;;;;;0.68;0.68;;;9.00;99.90;;;;;;4972285;28;20035;-76
2024/03/25 04:15:18;;;;;;;0.60;0.60;;;9.00;99.90;;;;;;4972167;28;20195;-76
2024/03/25 04:17:49;;;;;;;0.60;0.60;;;9.00;99.90;;;;;;4956547;28;20018;-76
2024/03/25 04:20:14;;;;;;;;;;;9.00;99.90;;;;;;4943852;28;20023;-76
2024/03/25 04:22:43;;;;;;;0.73;0.60;;;9.00;99.90;;;;;;4973499;28;20202;-76
2024/03/25 04:25:16;;;;;;;1.27;0.63;;;9.00;99.90;;;;;;4957929;28;20082;-76
2024/03/25 04:27:42;;;;;;;0.63;0.63;;;9.00;99.90;;;;;;4942347;28;20180;-76
2024/03/25 04:30:08;;;;;;;1.25;0.82;;;9.10;99.90;;;;;;4971908;28;20281;-76
2024/03/25 04:32:34;;;;;;;1.08;0.80;;;9.10;99.90;;;;;;4988762;28;20027;-76
2024/03/25 04:35:00;;;;;;;1.25;0.55;;;9.10;99.90;;;;;;4955750;28;20030;-76
2024/03/25 04:37:26;;;;;;;0.93;0.70;;;9.10;99.90;;;;;;4955369;28;20027;-76
2024/03/25 04:39:51;;;;;;;1.77;0.80;;;9.10;99.90;;;;;;4988490;28;20078;-76
2024/03/25 04:42:17;;;;;;;0.85;0.70;;;9.10;99.90;;;;;;4971309;28;20031;-76
2024/03/25 04:44:43;;;;;;;0.70;0.70;;;9.10;99.90;;;;;;4988104;28;20300;-76
2024/03/25 04:47:09;;;;;;;1.23;0.70;;;9.20;99.90;;;;;;4971445;28;20101;-76
2024/03/25 04:49:34;;;;;;;1.27;0.75;;;9.10;99.90;;;;;;4971464;28;20034;-77
2024/03/25 04:52:00;;;;;;;0.60;0.60;;;9.10;99.90;;;;;;4971335;28;20296;-76
2024/03/25 04:54:25;;;;;;;1.90;0.70;;;9.10;99.90;;;;;;4971310;28;20300;-76
2024/03/25 04:56:51;;;;;;;0.60;0.60;;;9.10;99.90;;;;;;4988452;28;20037;-76
2024/03/25 04:59:17;;;;;;;1.30;0.70;;;9.10;99.90;;;;;;4971332;28;20037;-77
2024/03/25 05:02:27;;;;;;;0.60;0.60;;;9.10;99.90;;;;;;4955125;28;20018;-76
2024/03/25 05:04:52;;;;;;;1.40;0.70;;;9.10;99.90;;;;;;4970923;28;20233;-76
2024/03/25 05:07:18;;;;;;;0.68;0.63;;;9.10;99.90;;;;;;4955276;28;20035;-76
2024/03/25 05:09:44;;;;;;;1.75;0.60;;;9.20;99.90;;;;;;4970927;28;20145;-77
2024/03/25 05:12:10;;;;;;;0.50;0.50;;;9.10;99.90;;;;;;4970885;28;20033;-77
2024/03/25 05:14:36;;;;;;;0.65;0.60;;;9.20;99.90;;;;;;4955014;28;20054;-77
2024/03/25 05:17:03;;;;;;;0.52;0.50;;;9.20;99.90;;;;;;4954677;28;20022;-76
2024/03/25 05:19:29;;;;;;;2.40;0.70;;;9.20;99.90;;;;;;4970957;28;20023;-76
2024/03/25 05:21:54;;;;;;;0.60;0.60;;;9.20;99.90;;;;;;4970743;28;20090;-76
2024/03/25 05:24:20;;;;;;;1.75;0.60;;;9.20;99.90;;;;;;4954522;28;20081;-77
2024/03/25 05:26:46;;;;;;;0.60;0.60;;;9.20;99.90;;;;;;4954454;28;20355;-77
2024/03/25 05:29:11;;;;;;;0.73;0.60;;;9.20;99.90;;;;;;4954436;28;20037;-77
2024/03/25 05:31:37;;;;;;;0.80;0.60;;;9.20;99.90;;;;;;4938651;28;20061;-77
2024/03/25 05:34:08;;;;;;;1.27;0.70;;;9.20;99.90;;;;;;4954510;28;20158;-77
2024/03/25 05:36:34;;;;;;;0.50;0.50;;;9.20;99.90;;;;;;4955901;28;20023;-77
2024/03/25 05:38:59;;;;;;;0.50;0.50;;;9.20;99.90;;;;;;4970349;28;20023;-77
2024/03/25 05:41:25;;;;;;;0.50;0.50;;;9.20;99.90;;;;;;4987316;28;20306;-77
2024/03/25 05:43:51;;;;;;;0.60;0.60;;;9.20;99.90;;;;;;4970386;28;20031;-77
2024/03/25 05:46:16;;;;;;;0.50;0.50;;;9.20;99.90;;;;;;4970171;28;20031;-76
2024/03/25 05:48:43;;;;;;;0.60;0.60;;;9.10;99.90;;;;;;4970358;28;20090;-77
2024/03/25 05:51:08;;;;;;;0.60;0.60;;;9.10;99.90;;;;;;4969975;28;20062;-77
2024/03/25 05:53:34;;;;;;;0.50;0.50;;;9.10;99.90;;;;;;4954043;28;20023;-77
2024/03/25 05:56:00;;;;;;;0.55;0.52;;;9.10;99.90;;;;;;4953409;28;20046;-77
2024/03/25 05:58:25;;;;;;;0.52;0.52;;;9.00;99.90;;;;;;4969927;28;20034;-77
2024/03/25 06:00:52;;;;;;;0.60;0.60;;;9.00;99.90;;;;;;4954015;28;20023;-77
2024/03/25 06:03:18;;;;;;;1.77;0.80;;;9.00;99.90;;;;;;4954172;28;20042;-78
2024/03/25 06:05:44;;;;;;;0.52;0.52;;;9.00;99.90;;;;;;4938433;28;20035;-77
2024/03/25 06:08:18;;;;;;;0.50;0.50;;;9.00;99.90;;;;;;4986981;28;20030;-77
2024/03/25 06:10:43;;;;;;;0.52;0.50;;;9.00;99.90;;;;;;4956298;28;20034;-77
2024/03/25 06:13:09;;;;;;;0.60;0.60;;;9.00;99.90;;;;;;4953637;28;20330;-77
2024/03/25 06:15:35;;;;;;;0.50;0.50;;;9.00;99.90;;;;;;4969812;28;20037;-77
2024/03/25 06:18:00;;;;;;;0.95;0.57;;;9.00;99.90;;;;;;4969805;28;20018;-77
2024/03/25 06:20:26;;;;;;;0.85;0.60;;;9.00;99.90;;;;;;4986721;28;20046;-78
2024/03/25 06:22:52;;;;;;;0.60;0.60;;;9.00;99.90;;;;;;4969654;28;20041;-77
2024/03/25 06:25:17;;;;;;;0.50;0.50;;;9.00;99.90;;;;;;4969741;28;20054;-77
2024/03/25 06:27:44;;;;;;;0.60;0.60;;;9.00;99.90;;;;;;4953454;28;20035;-77
2024/03/25 06:35:38;;;;;;;0.80;0.70;;;8.90;99.90;;;;;;4958603;28;20147;-77
2024/03/25 06:38:04;;;;;;;0.60;0.60;;;8.90;99.90;;;;;;4937663;28;20296;-77
2024/03/25 06:40:30;;;;;;;0.73;0.60;;;8.90;99.90;;;;;;4986155;28;20090;-77
2024/03/25 06:42:57;;;;;;;0.50;0.50;;;8.90;99.90;;;;;;4953510;28;20046;-77
2024/03/25 06:45:22;;;;;;;0.65;0.60;;;8.90;99.90;;;;;;4969606;28;20027;-77
2024/03/25 06:47:48;;;;;;;0.57;0.50;;;9.00;99.90;;;;;;4953364;28;20095;-77
2024/03/25 06:50:14;;;;;;;0.60;0.60;;;9.00;99.90;;;;;;4937348;28;20026;-77
2024/03/25 06:52:40;;;;;;;0.80;0.60;;;9.00;99.90;;;;;;4953332;28;20027;-77
2024/03/25 06:55:06;;;;;;;0.65;0.50;;;9.00;99.90;;;;;;4986335;28;20030;-77
2024/03/25 06:57:31;;;;;;;1.23;0.50;;;9.10;99.90;;;;;;4953119;28;20027;-77
2024/03/25 06:59:57;;;;;;;0.60;0.60;;;9.10;99.90;;;;;;4953472;28;20042;-76
2024/03/25 07:02:23;;;;;;;2.28;1.40;;;9.10;99.90;;;;;;4969527;28;20338;-77
2024/03/25 07:04:49;;;;;;;0.50;0.50;;;9.10;99.90;;;;;;4953590;28;20038;-77
2024/03/25 07:07:15;;;;;;;1.77;0.70;;;9.10;99.90;;;;;;4953967;28;20050;-77
2024/03/25 07:09:40;;;;;;;0.85;0.60;;;9.10;99.90;;;;;;4941903;28;20116;-77
2024/03/25 07:12:07;;;;;;;1.33;0.80;;;9.10;99.90;;;;;;4941420;28;20176;-77
2024/03/25 07:14:32;;;;;;;0.60;0.60;;;9.10;99.90;;;;;;4956986;28;20061;-77
2024/03/25 07:16:58;;;;;;;1.35;0.73;;;9.20;99.90;;;;;;4972773;28;20035;-77
2024/03/25 07:19:24;;;;;;;0.77;0.73;;;9.20;99.90;;;;;;4956807;28;20018;-77
2024/03/25 07:21:49;;;;;;;0.60;0.50;;;9.20;99.90;;;;;;4972856;28;20078;-77
2024/03/25 07:24:15;;;;;;;0.65;0.60;;;9.30;99.90;;;;;;4956893;28;20080;-77
2024/03/25 07:26:41;;;;;;;1.33;0.63;;;9.40;99.90;;;;;;4972755;28;20062;-77
2024/03/25 07:29:06;;;;;;;0.50;0.50;;;9.40;99.90;;;;;;4989379;28;20027;-76
2024/03/25 07:31:32;;;;;;;0.75;0.60;;;9.40;99.90;;;;;;4989403;28;20046;-77
2024/03/25 07:33:57;;;;;;;1.10;0.60;;;9.40;99.90;;;;;;4990014;28;20027;-76
2024/03/25 07:36:23;;;;;;;0.60;0.60;;;9.50;99.90;;;;;;4989432;28;20027;-77
2024/03/25 07:38:49;;;;;;;0.63;0.60;;;9.50;99.90;;;;;;4972428;28;20030;-76
2024/03/25 07:41:14;;;;;;;1.02;0.60;;;9.40;99.90;;;;;;4972083;28;20053;-76
2024/03/25 07:43:40;;;;;;;0.63;0.63;;;9.50;99.90;;;;;;4972356;28;20082;-77
2024/03/25 07:46:05;;;;;;;1.05;0.80;;;9.50;99.90;;;;;;4956630;28;20061;-77
2024/03/25 07:48:31;;;;;;;0.60;0.60;;;9.50;99.90;;;;;;4971939;28;20092;-77
2024/03/25 07:50:57;;;;;;;0.50;0.50;;;9.60;99.90;;;;;;4988793;28;20325;-77
2024/03/25 07:53:22;;;;;;;0.60;0.60;;;9.60;99.90;;;;;;4972226;28;20047;-76
2024/03/25 07:55:48;;;;;;;0.60;0.60;;;9.60;99.90;;;;;;4989273;28;20060;-76
2024/03/25 07:58:14;;;;;;;0.60;0.60;;;9.70;99.90;;;;;;4972283;28;20026;-76
2024/03/25 08:00:39;;;;;;;0.77;0.77;;;9.60;99.90;;;;;;4972047;28;20031;-76
2024/03/25 08:03:05;;;;;;;0.60;0.50;;;9.70;99.90;;;;;;4971811;28;20315;-75
2024/03/25 08:05:30;;;;;;;0.75;0.75;;;9.60;99.90;;;;;;4989103;28;20038;-76
2024/03/25 08:07:56;;;;;;;0.85;0.80;;;9.70;99.90;;;;;;4955912;28;20045;-75
2024/03/25 08:10:22;;;;;;;0.60;0.60;;;9.70;99.90;;;;;;4989023;28;20031;-76
2024/03/25 08:12:48;;;;;;;0.70;0.70;;;9.60;99.90;;;;;;4956167;28;20033;-76
2024/03/25 08:15:14;;;;;;;0.90;0.60;;;9.70;99.90;;;;;;4971869;28;20054;-75
2024/03/25 08:17:39;;;;;;;1.20;0.63;;;9.70;99.90;;;;;;4971967;28;20030;-76
2024/03/25 08:20:06;;;;;;;0.60;0.60;;;9.60;99.90;;;;;;4955259;28;20301;-76
2024/03/25 08:22:31;;;;;;;0.50;0.50;;;9.60;99.90;;;;;;4971571;28;20093;-76
2024/03/25 08:24:57;;;;;;;0.95;0.63;;;9.60;99.90;;;;;;4988944;28;20284;-76
2024/03/25 08:27:23;;;;;;;0.70;0.70;;;9.70;99.90;;;;;;4956021;28;20027;-77
2024/03/25 08:29:53;;;;;;;0.73;0.70;;;9.70;99.90;;;;;;4989007;28;20094;-76
2024/03/25 08:32:19;;;;;;;0.90;0.70;;;9.70;99.90;;;;;;4972479;28;20114;-76
2024/03/25 08:34:45;;;;;;;1.50;0.70;;;9.70;99.90;;;;;;4975970;28;20030;-76
2024/03/25 08:37:11;;;;;;;0.70;0.70;;;9.80;99.90;;;;;;4967000;28;20030;-76
2024/03/25 08:39:36;;;;;;;0.75;0.70;;;9.80;99.90;;;;;;4982565;28;20026;-76
2024/03/25 08:42:02;;;;;;;0.68;0.68;;;9.90;99.90;;;;;;4982773;28;20034;-75
2024/03/25 08:44:28;;;;;;;0.90;0.70;;;10.00;99.90;;;;;;4966474;28;20030;-76
2024/03/25 08:46:53;;;;;;;0.82;0.70;;;10.10;99.90;;;;;;4964731;28;20030;-76
2024/03/25 08:49:19;;;;;;;0.85;0.70;;;10.10;99.90;;;;;;4980651;28;20031;-76
2024/03/25 08:51:45;;;;;;;0.70;0.60;;;10.30;99.90;;;;;;4962736;28;20061;-76
2024/03/25 08:54:11;;;;;;;0.70;0.70;;;10.50;99.90;;;;;;4962450;28;20037;-75
2024/03/25 08:56:36;;;;;;;0.60;0.60;;;10.60;99.90;;;;;;4988384;28;20034;-75
2024/03/25 08:59:03;;;;;;;0.60;0.60;;;10.60;99.90;;;;;;4955869;28;20050;-75
2024/03/25 09:01:28;;;;;;;0.65;0.65;;;10.80;99.90;;;;;;4971156;28;20096;-75
2024/03/25 09:03:54;;;;;;;0.52;0.50;;;11.20;99.90;;;;;;4955416;28;20031;-77
2024/03/25 09:06:20;;;;;;;1.52;0.73;;;11.30;99.90;;;;;;4970792;28;20045;-76
2024/03/25 09:11:30;;;;;;;0.60;0.60;;;11.70;99.90;;;;;;4973851;28;20080;-77
2024/03/25 09:13:55;;;;;;;0.60;0.60;;;12.20;99.90;;;;;;4938892;28;20062;-77
2024/03/25 09:16:21;;;;;;;0.95;0.70;;;12.40;99.90;;;;;;4954712;28;20173;-76
2024/03/25 09:18:46;;;;;;;0.90;0.60;;;11.90;99.90;;;;;;4987688;28;20018;-74
2024/03/25 09:21:13;;;;;;;0.75;0.60;;;11.50;99.90;;;;;;4971450;28;20058;-75
2024/03/25 09:23:39;;;;;;;0.60;0.60;;;11.30;99.90;;;;;;4954496;28;20130;-75
2024/03/25 09:26:04;;;;;;;0.50;0.50;;;11.40;99.90;;;;;;4954388;28;20034;-75
2024/03/25 09:28:30;;;;;;;0.60;0.57;;;11.30;99.90;;;;;;4955289;28;20062;-75
2024/03/25 09:30:55;;;;;;;0.70;0.70;;;11.40;99.90;;;;;;4970237;28;20033;-75
2024/03/25 09:33:21;;;;;;;0.50;0.50;;;11.30;99.90;;;;;;4970225;28;20101;-74
2024/03/25 09:35:48;;;;;;;0.50;0.50;;;11.20;99.90;;;;;;4970221;28;20047;-75
2024/03/25 09:38:14;;;;;;;1.35;0.60;;;11.10;99.90;;;;;;4970195;28;20065;-75
2024/03/25 09:40:40;;;;;;;0.98;0.60;;;11.10;99.90;;;;;;4953863;28;20042;-75
2024/03/25 09:43:06;;;;;;;0.50;0.50;;;11.10;99.90;;;;;;4954105;28;20034;-76
2024/03/25 09:45:32;;;;;;;0.85;0.50;;;11.00;99.90;;;;;;4954035;28;20026;-76
2024/03/25 09:47:58;;;;;;;0.82;0.60;;;11.00;99.90;;;;;;4953956;28;20038;-76
2024/03/25 09:50:24;;;;;;;1.25;0.60;;;11.00;99.90;;;;;;4954263;28;20046;-77
2024/03/25 09:52:50;;;;;;;0.50;0.50;;;11.10;99.90;;;;;;4969918;28;20027;-76
2024/03/25 09:55:16;;;;;;;0.50;0.50;;;11.10;99.90;;;;;;4954267;28;20046;-77
2024/03/25 09:57:45;;;;;;;0.52;0.52;;;11.20;99.90;;;;;;4987540;28;20034;-76
2024/03/25 10:00:11;;;;;;;0.75;0.60;;;11.20;99.90;;;;;;4954142;28;20018;-76
2024/03/25 10:02:40;;;;;;;0.50;0.50;;;11.30;99.90;;;;;;4953892;28;20030;-76
2024/03/25 10:05:06;;;;;;;0.50;0.50;;;11.40;99.90;;;;;;4986511;28;20069;-76
2024/03/25 10:07:32;;;;;;;2.05;0.70;;;11.30;99.90;;;;;;4986680;28;20026;-77
2024/03/25 10:09:58;;;;;;;1.88;0.70;;;11.40;99.90;;;;;;4986330;28;20046;-75
2024/03/25 10:12:24;;;;;;;0.60;0.60;;;11.30;99.90;;;;;;4986642;28;20094;-76
2024/03/25 10:14:50;;;;;;;0.90;0.63;;;11.20;99.90;;;;;;4986229;28;20153;-76
2024/03/25 10:17:16;;;;;;;0.50;0.50;;;11.10;99.90;;;;;;4986501;28;20037;-76
2024/03/25 10:19:41;;;;;;;0.50;0.50;;;11.00;99.90;;;;;;4986449;28;20035;-76
2024/03/25 10:22:08;;;;;;;0.47;0.47;;;10.90;99.90;;;;;;4985953;28;20053;-77
2024/03/25 10:24:40;;;;;;;0.85;0.73;;;10.70;99.90;;;;;;4953414;28;20034;-77
2024/03/25 10:27:06;;;;;;;0.57;0.57;;;10.60;99.90;;;;;;4953434;28;20035;-76
2024/03/25 10:29:31;;;;;;;0.60;0.60;;;10.60;99.90;;;;;;4937364;28;20045;-76
2024/03/25 10:32:01;;;;;;;0.73;0.60;;;10.60;99.90;;;;;;4953042;28;20069;-76
2024/03/25 10:34:27;;;;;;;1.25;0.60;;;10.60;99.90;;;;;;4952751;28;20054;-76
2024/03/25 10:36:57;;;;;;;0.82;0.68;;;10.60;99.90;;;;;;4969186;28;20192;-76
2024/03/25 10:39:25;;;;;;;1.02;0.52;;;10.70;99.90;;;;;;4985821;28;20077;-77
2024/03/25 10:41:51;;;;;;;0.60;0.60;;;10.80;99.90;;;;;;4986665;28;20043;-77
2024/03/25 10:44:17;;;;;;;0.60;0.60;;;10.80;99.90;;;;;;4992551;28;20034;-77
2024/03/25 10:46:43;;;;;;;1.17;0.65;;;10.90;99.90;;;;;;4959170;28;20029;-76
2024/03/25 10:49:26;;;;;;;0.50;0.50;;;11.00;99.90;;;;;;4975191;28;20035;-77
2024/03/25 10:51:52;;;;;;;0.73;0.60;;;11.10;99.90;;;;;;4975661;28;20031;-76
2024/03/25 10:54:17;;;;;;;0.65;0.60;;;11.20;99.90;;;;;;4992172;28;20061;-77
2024/03/25 10:56:43;;;;;;;1.00;0.57;;;11.50;99.90;;;;;;4959173;28;20027;-76
2024/03/25 10:59:13;;;;;;;0.70;0.70;;;11.60;99.90;;;;;;4992315;28;20200;-80
2024/03/25 11:01:38;;;;;;;1.33;0.60;;;11.70;99.90;;;;;;4960020;28;20031;-81
2024/03/25 11:04:05;;;;;;;2.15;0.70;;;11.70;99.90;;;;;;4975593;28;20037;-78
2024/03/25 11:06:31;;;;;;;0.65;0.50;;;11.70;99.90;;;;;;4992540;28;20030;-77
2024/03/25 11:08:58;;;;;;;1.40;0.60;;;11.60;99.90;;;;;;4975629;28;20035;-77
2024/03/25 11:11:24;;;;;;;1.55;0.50;;;11.60;99.90;;;;;;4975264;28;20029;-76
2024/03/25 11:13:49;;;;;;;0.70;0.70;;;11.60;99.90;;;;;;4974890;28;20200;-77
2024/03/25 11:16:27;;;;;;;0.70;0.60;;;11.50;99.90;;;;;;4992065;28;20022;-76
2024/03/25 11:18:53;;;;;;;0.50;0.50;;;11.60;99.90;;;;;;4959603;28;20030;-75
2024/03/25 11:21:24;;;;;;;0.60;0.60;;;11.50;99.90;;;;;;4975249;28;20037;-75
2024/03/25 11:23:50;;;;;;;0.50;0.50;;;11.70;99.90;;;;;;4975259;28;20049;-75
2024/03/25 11:26:27;;;;;;;0.60;0.60;;;11.70;99.90;;;;;;4960928;28;20223;-76
2024/03/25 11:28:53;;;;;;;0.50;0.50;;;11.80;99.90;;;;;;4976448;28;20041;-74
2024/03/25 11:31:20;;;;;;;0.50;0.50;;;11.80;99.90;;;;;;4960833;28;20026;-73
2024/03/25 11:33:47;;;;;;;1.33;0.60;;;11.90;99.90;;;;;;4975886;28;20104;-75
2024/03/25 11:36:12;;;;;;;0.50;0.50;;;11.90;99.90;;;;;;4975876;28;20029;-74
2024/03/25 11:38:41;;;;;;;0.50;0.50;;;11.80;99.90;;;;;;4958635;28;20030;-75
2024/03/25 11:41:07;;;;;;;0.70;0.70;;;11.70;99.90;;;;;;4976111;28;20058;-76
2024/03/25 11:43:33;;;;;;;0.85;0.73;;;11.60;99.90;;;;;;4975052;28;20034;-75
2024/03/25 11:45:58;;;;;;;1.83;0.80;;;11.50;99.90;;;;;;4974375;28;20344;-75
2024/03/25 11:48:24;;;;;;;0.50;0.50;;;11.40;99.90;;;;;;4959424;28;20090;-75
2024/03/25 11:50:50;;;;;;;0.98;0.70;;;11.30;99.90;;;;;;4975487;28;20276;-75
2024/03/25 11:53:15;;;;;;;0.70;0.70;;;11.30;99.90;;;;;;4973819;28;20239;-75
2024/03/25 11:55:45;;;;;;;0.60;0.60;;;11.20;99.90;;;;;;4971181;28;20030;-76
2024/03/25 11:58:11;;;;;;;2.67;0.80;;;11.20;99.90;;;;;;4956476;28;20313;-76
2024/03/25 12:00:45;;;;;;;0.65;0.65;;;11.30;99.90;;;;;;4955934;28;20038;-76
2024/03/25 12:03:14;;;;;;;0.75;0.60;;;11.30;99.90;;;;;;4956628;28;20085;-75
2024/03/25 12:05:41;;;;;;;0.85;0.50;;;11.30;99.90;;;;;;4955986;28;20054;-76
2024/03/25 12:08:09;;;;;;;0.50;0.50;;;11.30;99.90;;;;;;4989372;28;20046;-76
2024/03/25 12:13:20;;;;;;;0.68;0.57;;;11.30;99.90;;;;;;4961404;28;20113;-74
2024/03/25 12:15:45;;;;;;;0.70;0.60;;;11.40;99.90;;;;;;4956270;28;20391;-76
2024/03/25 12:18:11;;;;;;;0.75;0.63;;;11.50;99.90;;;;;;4971132;28;20098;-74
2024/03/25 12:20:38;;;;;;;1.00;0.60;;;11.60;99.90;;;;;;4955764;28;20019;-76
2024/03/25 12:23:04;;;;;;;1.60;0.50;;;11.60;99.90;;;;;;4971331;28;20204;-76
2024/03/25 12:25:31;;;;;;;1.20;0.57;;;11.60;99.90;;;;;;4955230;28;20228;-76
2024/03/25 12:27:57;;;;;;;0.60;0.60;;;11.60;99.90;;;;;;4988621;28;20019;-77
2024/03/25 12:30:22;;;;;;;1.17;0.60;;;11.60;99.90;;;;;;4955502;28;20302;-77
2024/03/25 12:32:50;;;;;;;1.75;0.80;;;11.60;99.90;;;;;;4955264;28;20041;-76
2024/03/25 12:35:17;;;;;;;1.10;0.70;;;11.70;99.90;;;;;;4955380;28;20213;-76
2024/03/25 12:37:46;;;;;;;2.95;0.70;;;11.70;99.90;;;;;;4955295;28;20050;-76
2024/03/25 12:40:24;;;;;;;0.77;0.63;;;11.70;99.90;;;;;;4955455;28;20058;-76
2024/03/25 12:42:52;;;;;;;1.45;0.60;;;11.80;99.90;;;;;;4956824;28;20026;-78
2024/03/25 12:45:17;;;;;;;0.82;0.77;;;12.00;99.90;;;;;;4954969;28;20073;-77
2024/03/25 12:47:46;;;;;;;0.70;0.70;;;12.00;99.90;;;;;;4938893;28;20280;-78
2024/03/25 12:50:12;;;;;;;1.13;0.60;;;12.10;99.90;;;;;;4972536;28;20019;-75
2024/03/25 12:52:37;;;;;;;0.88;0.60;;;12.10;99.90;;;;;;4989846;28;20098;-78
2024/03/25 12:55:03;;;;;;;0.98;0.60;;;12.20;99.90;;;;;;4970875;28;20069;-77
2024/03/25 12:57:29;;;;;;;1.20;0.63;;;12.00;99.90;;;;;;4970777;28;20181;-76
2024/03/25 12:59:55;;;;;;;1.00;0.57;;;12.10;99.90;;;;;;4987467;28;20034;-77